Dunoon, United Kingdom
Current Conditions -  °F | °C
As of 8:50 AM on Friday 24 Oct 2014 (Local Time) from EGPF Reporting Station
Few Clouds Few Clouds  
Wind Chill: 45°   Ceiling: Unl
Heat Index: 48°   Visibility: 6mi
Dew Point: 45°   Wind: 8mph
Humidity: 87%   Direction: 220°SW
Pressure: 29.77"   Gusts: NA
Location:  55.95°N, 4.92°W
Report Text: EGPF 240750Z AUTO 22007KT 9999 FEW044 09/07 Q1008
Loading
Personal Weather Stations






























Interactive Weather Map
Tropical Storm Tracking
New forecast layout! Learn more

10-Day Weather Forecast

Advertisements
Track Severe Weather on mobile